sensor_id;sensor_type;location;lat;lon;timestamp;P1;durP1;ratioP1;P2;durP2;ratioP2
20159;SDS011;50187;50.492;12.134;2023-07-29T00:02:10;49.93;;;45.33;;
20159;SDS011;50187;50.492;12.134;2023-07-29T00:04:48;48.63;;;44.10;;
20159;SDS011;50187;50.492;12.134;2023-07-29T00:07:14;49.63;;;45.37;;
20159;SDS011;50187;50.492;12.134;2023-07-29T00:09:41;45.97;;;41.67;;
20159;SDS011;50187;50.492;12.134;2023-07-29T00:12:08;48.93;;;44.53;;
20159;SDS011;50187;50.492;12.134;2023-07-29T00:14:35;47.80;;;43.33;;
20159;SDS011;50187;50.492;12.134;2023-07-29T00:17:02;45.53;;;41.33;;
20159;SDS011;50187;50.492;12.134;2023-07-29T00:19:28;41.83;;;37.90;;
20159;SDS011;50187;50.492;12.134;2023-07-29T00:21:55;42.70;;;38.60;;
20159;SDS011;50187;50.492;12.134;2023-07-29T00:24:23;45.50;;;41.07;;
20159;SDS011;50187;50.492;12.134;2023-07-29T00:26:49;41.23;;;37.50;;
20159;SDS011;50187;50.492;12.134;2023-07-29T00:29:16;41.77;;;37.60;;
20159;SDS011;50187;50.492;12.134;2023-07-29T00:31:43;42.20;;;38.40;;
20159;SDS011;50187;50.492;12.134;2023-07-29T00:34:12;38.77;;;35.37;;
20159;SDS011;50187;50.492;12.134;2023-07-29T00:36:44;40.27;;;36.63;;
20159;SDS011;50187;50.492;12.134;2023-07-29T00:39:13;39.10;;;35.67;;
20159;SDS011;50187;50.492;12.134;2023-07-29T00:41:41;39.80;;;36.07;;
20159;SDS011;50187;50.492;12.134;2023-07-29T00:44:09;37.07;;;33.53;;
20159;SDS011;50187;50.492;12.134;2023-07-29T00:46:37;34.83;;;31.73;;
20159;SDS011;50187;50.492;12.134;2023-07-29T00:49:05;36.77;;;33.37;;
20159;SDS011;50187;50.492;12.134;2023-07-29T00:51:33;38.43;;;34.93;;
20159;SDS011;50187;50.492;12.134;2023-07-29T00:54:00;35.87;;;32.50;;
20159;SDS011;50187;50.492;12.134;2023-07-29T00:56:27;36.27;;;32.93;;
20159;SDS011;50187;50.492;12.134;2023-07-29T00:58:54;35.23;;;32.03;;
20159;SDS011;50187;50.492;12.134;2023-07-29T01:01:26;37.63;;;34.27;;
20159;SDS011;50187;50.492;12.134;2023-07-29T01:03:53;34.13;;;31.23;;
20159;SDS011;50187;50.492;12.134;2023-07-29T01:06:34;35.07;;;31.67;;
20159;SDS011;50187;50.492;12.134;2023-07-29T01:15:26;31.47;;;28.63;;
20159;SDS011;50187;50.492;12.134;2023-07-29T01:18:06;29.17;;;26.57;;
20159;SDS011;50187;50.492;12.134;2023-07-29T01:20:39;28.20;;;25.60;;
20159;SDS011;50187;50.492;12.134;2023-07-29T01:23:07;25.80;;;23.60;;
20159;SDS011;50187;50.492;12.134;2023-07-29T01:25:34;25.50;;;23.17;;
20159;SDS011;50187;50.492;12.134;2023-07-29T01:28:01;26.03;;;23.80;;
20159;SDS011;50187;50.492;12.134;2023-07-29T01:30:31;23.90;;;21.80;;
20159;SDS011;50187;50.492;12.134;2023-07-29T01:35:46;23.93;;;21.73;;
20159;SDS011;50187;50.492;12.134;2023-07-29T01:38:18;22.20;;;20.03;;
20159;SDS011;50187;50.492;12.134;2023-07-29T01:40:47;20.80;;;18.93;;
20159;SDS011;50187;50.492;12.134;2023-07-29T01:43:15;22.47;;;20.37;;
20159;SDS011;50187;50.492;12.134;2023-07-29T01:45:42;20.20;;;18.50;;
20159;SDS011;50187;50.492;12.134;2023-07-29T01:48:09;20.87;;;19.03;;
20159;SDS011;50187;50.492;12.134;2023-07-29T01:50:36;20.13;;;18.47;;
20159;SDS011;50187;50.492;12.134;2023-07-29T01:53:02;18.77;;;17.17;;
20159;SDS011;50187;50.492;12.134;2023-07-29T01:55:30;20.57;;;18.90;;
20159;SDS011;50187;50.492;12.134;2023-07-29T01:57:56;20.47;;;18.77;;
20159;SDS011;50187;50.492;12.134;2023-07-29T02:00:24;19.17;;;17.53;;
20159;SDS011;50187;50.492;12.134;2023-07-29T02:02:51;19.40;;;17.57;;
20159;SDS011;50187;50.492;12.134;2023-07-29T02:05:18;18.20;;;16.73;;
20159;SDS011;50187;50.492;12.134;2023-07-29T02:07:45;17.97;;;16.47;;
20159;SDS011;50187;50.492;12.134;2023-07-29T02:10:11;18.50;;;16.93;;
20159;SDS011;50187;50.492;12.134;2023-07-29T02:12:38;16.90;;;15.50;;
20159;SDS011;50187;50.492;12.134;2023-07-29T02:15:05;16.87;;;15.47;;
20159;SDS011;50187;50.492;12.134;2023-07-29T02:17:32;17.70;;;16.23;;
20159;SDS011;50187;50.492;12.134;2023-07-29T02:19:59;17.00;;;15.50;;
20159;SDS011;50187;50.492;12.134;2023-07-29T02:22:26;16.50;;;15.20;;
20159;SDS011;50187;50.492;12.134;2023-07-29T02:24:53;16.83;;;15.33;;
20159;SDS011;50187;50.492;12.134;2023-07-29T02:27:20;16.37;;;15.07;;
20159;SDS011;50187;50.492;12.134;2023-07-29T02:29:47;16.93;;;15.43;;
20159;SDS011;50187;50.492;12.134;2023-07-29T02:32:13;16.23;;;14.83;;
20159;SDS011;50187;50.492;12.134;2023-07-29T02:34:40;16.00;;;14.70;;
20159;SDS011;50187;50.492;12.134;2023-07-29T02:37:07;16.27;;;14.87;;
20159;SDS011;50187;50.492;12.134;2023-07-29T02:39:34;16.07;;;14.77;;
20159;SDS011;50187;50.492;12.134;2023-07-29T02:42:01;15.47;;;14.07;;
20159;SDS011;50187;50.492;12.134;2023-07-29T02:44:28;14.50;;;13.30;;
20159;SDS011;50187;50.492;12.134;2023-07-29T02:46:54;14.87;;;13.67;;
20159;SDS011;50187;50.492;12.134;2023-07-29T02:49:22;14.93;;;13.53;;
20159;SDS011;50187;50.492;12.134;2023-07-29T02:51:50;14.53;;;13.30;;
20159;SDS011;50187;50.492;12.134;2023-07-29T02:54:16;14.40;;;13.20;;
20159;SDS011;50187;50.492;12.134;2023-07-29T02:56:43;14.67;;;13.37;;
20159;SDS011;50187;50.492;12.134;2023-07-29T02:59:09;14.50;;;13.20;;
20159;SDS011;50187;50.492;12.134;2023-07-29T03:01:36;15.23;;;13.37;;
20159;SDS011;50187;50.492;12.134;2023-07-29T03:04:03;13.87;;;12.67;;
20159;SDS011;50187;50.492;12.134;2023-07-29T03:06:29;13.50;;;12.30;;
20159;SDS011;50187;50.492;12.134;2023-07-29T03:08:56;13.10;;;11.90;;
20159;SDS011;50187;50.492;12.134;2023-07-29T03:11:23;12.17;;;11.13;;
20159;SDS011;50187;50.492;12.134;2023-07-29T03:13:49;13.03;;;11.90;;
20159;SDS011;50187;50.492;12.134;2023-07-29T03:16:17;12.73;;;11.63;;
20159;SDS011;50187;50.492;12.134;2023-07-29T03:18:52;12.40;;;11.37;;
20159;SDS011;50187;50.492;12.134;2023-07-29T03:21:18;13.17;;;12.07;;
20159;SDS011;50187;50.492;12.134;2023-07-29T03:23:45;13.27;;;12.17;;
20159;SDS011;50187;50.492;12.134;2023-07-29T03:26:12;12.93;;;11.83;;
20159;SDS011;50187;50.492;12.134;2023-07-29T03:28:39;12.53;;;11.53;;
20159;SDS011;50187;50.492;12.134;2023-07-29T03:31:07;11.77;;;10.73;;
20159;SDS011;50187;50.492;12.134;2023-07-29T03:33:35;12.50;;;11.40;;
20159;SDS011;50187;50.492;12.134;2023-07-29T03:36:01;10.60;;;9.80;;
20159;SDS011;50187;50.492;12.134;2023-07-29T03:38:28;10.90;;;10.00;;
20159;SDS011;50187;50.492;12.134;2023-07-29T03:40:56;10.90;;;9.97;;
20159;SDS011;50187;50.492;12.134;2023-07-29T03:43:23;10.53;;;9.73;;
20159;SDS011;50187;50.492;12.134;2023-07-29T03:45:54;10.83;;;9.93;;
20159;SDS011;50187;50.492;12.134;2023-07-29T03:48:21;9.10;;;8.47;;
20159;SDS011;50187;50.492;12.134;2023-07-29T03:50:48;10.30;;;9.50;;
20159;SDS011;50187;50.492;12.134;2023-07-29T03:53:14;9.70;;;8.93;;
20159;SDS011;50187;50.492;12.134;2023-07-29T03:55:41;9.90;;;9.00;;
20159;SDS011;50187;50.492;12.134;2023-07-29T03:58:08;9.80;;;9.10;;
20159;SDS011;50187;50.492;12.134;2023-07-29T04:00:35;9.57;;;8.77;;
20159;SDS011;50187;50.492;12.134;2023-07-29T04:03:08;9.30;;;8.57;;
20159;SDS011;50187;50.492;12.134;2023-07-29T04:05:35;8.97;;;8.27;;
20159;SDS011;50187;50.492;12.134;2023-07-29T04:08:02;9.10;;;8.30;;
20159;SDS011;50187;50.492;12.134;2023-07-29T04:10:29;8.50;;;7.80;;
20159;SDS011;50187;50.492;12.134;2023-07-29T04:12:58;8.53;;;7.83;;
20159;SDS011;50187;50.492;12.134;2023-07-29T04:15:24;8.67;;;7.90;;
20159;SDS011;50187;50.492;12.134;2023-07-29T04:17:52;7.60;;;7.00;;
20159;SDS011;50187;50.492;12.134;2023-07-29T04:20:18;8.43;;;7.73;;
20159;SDS011;50187;50.492;12.134;2023-07-29T04:22:45;8.37;;;7.67;;
20159;SDS011;50187;50.492;12.134;2023-07-29T04:25:12;7.77;;;7.23;;
20159;SDS011;50187;50.492;12.134;2023-07-29T04:27:39;8.67;;;7.30;;
20159;SDS011;50187;50.492;12.134;2023-07-29T04:30:06;7.93;;;7.33;;
20159;SDS011;50187;50.492;12.134;2023-07-29T04:32:33;7.30;;;6.77;;
20159;SDS011;50187;50.492;12.134;2023-07-29T04:35:00;6.60;;;6.10;;
20159;SDS011;50187;50.492;12.134;2023-07-29T04:37:26;7.00;;;6.50;;
20159;SDS011;50187;50.492;12.134;2023-07-29T04:39:53;7.63;;;7.03;;
20159;SDS011;50187;50.492;12.134;2023-07-29T04:42:20;7.53;;;6.93;;
20159;SDS011;50187;50.492;12.134;2023-07-29T04:44:48;6.73;;;6.23;;
20159;SDS011;50187;50.492;12.134;2023-07-29T04:47:15;6.83;;;6.33;;
20159;SDS011;50187;50.492;12.134;2023-07-29T04:49:41;6.53;;;6.03;;
20159;SDS011;50187;50.492;12.134;2023-07-29T04:52:08;6.80;;;6.30;;
20159;SDS011;50187;50.492;12.134;2023-07-29T04:54:35;6.60;;;6.10;;
20159;SDS011;50187;50.492;12.134;2023-07-29T04:57:01;6.10;;;5.60;;
20159;SDS011;50187;50.492;12.134;2023-07-29T04:59:28;6.80;;;6.30;;
20159;SDS011;50187;50.492;12.134;2023-07-29T05:01:55;6.00;;;5.60;;
20159;SDS011;50187;50.492;12.134;2023-07-29T05:04:21;5.77;;;5.37;;
20159;SDS011;50187;50.492;12.134;2023-07-29T05:06:49;6.37;;;5.87;;
20159;SDS011;50187;50.492;12.134;2023-07-29T05:09:17;6.17;;;5.67;;
20159;SDS011;50187;50.492;12.134;2023-07-29T05:11:47;6.40;;;5.80;;
20159;SDS011;50187;50.492;12.134;2023-07-29T05:14:15;6.03;;;5.57;;
20159;SDS011;50187;50.492;12.134;2023-07-29T05:16:43;6.57;;;6.07;;
20159;SDS011;50187;50.492;12.134;2023-07-29T05:19:10;5.40;;;5.00;;
20159;SDS011;50187;50.492;12.134;2023-07-29T05:21:39;5.40;;;5.00;;
20159;SDS011;50187;50.492;12.134;2023-07-29T05:24:06;5.37;;;4.97;;
20159;SDS011;50187;50.492;12.134;2023-07-29T05:26:33;5.60;;;5.20;;
20159;SDS011;50187;50.492;12.134;2023-07-29T05:29:00;5.23;;;4.83;;
20159;SDS011;50187;50.492;12.134;2023-07-29T05:31:27;5.80;;;5.30;;
20159;SDS011;50187;50.492;12.134;2023-07-29T05:33:54;5.27;;;4.87;;
20159;SDS011;50187;50.492;12.134;2023-07-29T05:36:21;5.07;;;4.77;;
20159;SDS011;50187;50.492;12.134;2023-07-29T05:38:47;4.90;;;4.53;;
20159;SDS011;50187;50.492;12.134;2023-07-29T05:41:14;5.57;;;4.83;;
20159;SDS011;50187;50.492;12.134;2023-07-29T05:43:41;5.27;;;4.87;;
20159;SDS011;50187;50.492;12.134;2023-07-29T05:46:09;5.20;;;4.80;;
20159;SDS011;50187;50.492;12.134;2023-07-29T05:48:36;5.13;;;4.80;;
20159;SDS011;50187;50.492;12.134;2023-07-29T05:51:03;5.57;;;4.50;;
20159;SDS011;50187;50.492;12.134;2023-07-29T05:53:32;4.50;;;4.20;;
20159;SDS011;50187;50.492;12.134;2023-07-29T05:55:58;4.63;;;4.30;;
20159;SDS011;50187;50.492;12.134;2023-07-29T05:58:25;4.37;;;4.07;;
20159;SDS011;50187;50.492;12.134;2023-07-29T06:00:52;4.03;;;3.73;;
20159;SDS011;50187;50.492;12.134;2023-07-29T06:03:20;4.03;;;3.73;;
20159;SDS011;50187;50.492;12.134;2023-07-29T06:05:50;4.37;;;4.07;;
20159;SDS011;50187;50.492;12.134;2023-07-29T06:08:20;4.27;;;3.97;;
20159;SDS011;50187;50.492;12.134;2023-07-29T06:10:47;3.93;;;3.63;;
20159;SDS011;50187;50.492;12.134;2023-07-29T06:13:14;4.10;;;3.80;;
20159;SDS011;50187;50.492;12.134;2023-07-29T06:15:40;4.03;;;3.63;;
20159;SDS011;50187;50.492;12.134;2023-07-29T06:18:07;3.70;;;3.50;;
20159;SDS011;50187;50.492;12.134;2023-07-29T06:20:34;3.70;;;3.40;;
20159;SDS011;50187;50.492;12.134;2023-07-29T06:23:01;4.00;;;3.80;;
20159;SDS011;50187;50.492;12.134;2023-07-29T06:25:28;3.73;;;3.43;;
20159;SDS011;50187;50.492;12.134;2023-07-29T06:27:55;3.60;;;3.37;;
20159;SDS011;50187;50.492;12.134;2023-07-29T06:30:21;3.37;;;3.17;;
20159;SDS011;50187;50.492;12.134;2023-07-29T06:32:48;3.73;;;3.53;;
20159;SDS011;50187;50.492;12.134;2023-07-29T06:35:15;4.23;;;3.90;;
20159;SDS011;50187;50.492;12.134;2023-07-29T06:37:41;3.57;;;3.37;;
20159;SDS011;50187;50.492;12.134;2023-07-29T06:40:08;3.37;;;3.17;;
20159;SDS011;50187;50.492;12.134;2023-07-29T06:42:35;3.47;;;3.27;;
20159;SDS011;50187;50.492;12.134;2023-07-29T06:45:04;3.80;;;3.47;;
20159;SDS011;50187;50.492;12.134;2023-07-29T06:47:31;3.63;;;3.37;;
20159;SDS011;50187;50.492;12.134;2023-07-29T06:49:58;3.40;;;3.20;;
20159;SDS011;50187;50.492;12.134;2023-07-29T06:52:25;3.57;;;3.27;;
20159;SDS011;50187;50.492;12.134;2023-07-29T06:54:51;2.97;;;2.77;;
20159;SDS011;50187;50.492;12.134;2023-07-29T06:57:18;3.50;;;3.30;;
20159;SDS011;50187;50.492;12.134;2023-07-29T06:59:45;3.40;;;3.20;;
20159;SDS011;50187;50.492;12.134;2023-07-29T07:02:11;3.37;;;3.17;;
20159;SDS011;50187;50.492;12.134;2023-07-29T07:04:38;3.30;;;3.10;;
20159;SDS011;50187;50.492;12.134;2023-07-29T07:07:04;2.87;;;2.67;;
20159;SDS011;50187;50.492;12.134;2023-07-29T07:09:31;3.20;;;3.00;;
20159;SDS011;50187;50.492;12.134;2023-07-29T07:11:58;3.33;;;3.03;;
20159;SDS011;50187;50.492;12.134;2023-07-29T07:14:24;3.13;;;2.93;;
20159;SDS011;50187;50.492;12.134;2023-07-29T07:16:52;3.03;;;2.83;;
20159;SDS011;50187;50.492;12.134;2023-07-29T07:19:18;3.43;;;3.13;;
20159;SDS011;50187;50.492;12.134;2023-07-29T07:21:45;2.83;;;2.70;;
20159;SDS011;50187;50.492;12.134;2023-07-29T07:24:11;2.87;;;2.70;;
20159;SDS011;50187;50.492;12.134;2023-07-29T07:26:38;3.43;;;3.23;;
20159;SDS011;50187;50.492;12.134;2023-07-29T07:29:05;3.23;;;3.03;;
20159;SDS011;50187;50.492;12.134;2023-07-29T07:31:35;2.83;;;2.63;;
20159;SDS011;50187;50.492;12.134;2023-07-29T07:34:01;2.57;;;2.47;;
20159;SDS011;50187;50.492;12.134;2023-07-29T07:36:29;3.07;;;2.87;;
20159;SDS011;50187;50.492;12.134;2023-07-29T07:38:55;2.93;;;2.73;;
20159;SDS011;50187;50.492;12.134;2023-07-29T07:41:22;2.83;;;2.63;;
20159;SDS011;50187;50.492;12.134;2023-07-29T07:43:50;3.03;;;2.83;;
20159;SDS011;50187;50.492;12.134;2023-07-29T07:46:16;3.80;;;2.57;;
20159;SDS011;50187;50.492;12.134;2023-07-29T07:48:43;2.70;;;2.50;;
20159;SDS011;50187;50.492;12.134;2023-07-29T07:51:10;2.67;;;2.53;;
20159;SDS011;50187;50.492;12.134;2023-07-29T07:53:38;2.60;;;2.40;;
20159;SDS011;50187;50.492;12.134;2023-07-29T07:56:05;3.00;;;2.80;;
20159;SDS011;50187;50.492;12.134;2023-07-29T07:58:32;2.67;;;2.53;;
20159;SDS011;50187;50.492;12.134;2023-07-29T08:01:02;2.60;;;2.50;;
20159;SDS011;50187;50.492;12.134;2023-07-29T08:03:30;2.97;;;2.77;;
20159;SDS011;50187;50.492;12.134;2023-07-29T08:05:57;2.27;;;2.13;;
20159;SDS011;50187;50.492;12.134;2023-07-29T08:08:25;2.30;;;2.20;;
20159;SDS011;50187;50.492;12.134;2023-07-29T08:10:54;2.93;;;2.50;;
20159;SDS011;50187;50.492;12.134;2023-07-29T08:13:22;2.83;;;2.63;;
20159;SDS011;50187;50.492;12.134;2023-07-29T08:15:51;2.23;;;2.13;;
20159;SDS011;50187;50.492;12.134;2023-07-29T08:18:19;2.10;;;2.00;;
20159;SDS011;50187;50.492;12.134;2023-07-29T08:20:55;2.20;;;2.10;;
20159;SDS011;50187;50.492;12.134;2023-07-29T08:23:29;2.50;;;2.30;;
20159;SDS011;50187;50.492;12.134;2023-07-29T08:25:57;2.63;;;2.43;;
20159;SDS011;50187;50.492;12.134;2023-07-29T08:28:29;2.47;;;2.37;;
20159;SDS011;50187;50.492;12.134;2023-07-29T08:30:57;3.60;;;2.30;;
20159;SDS011;50187;50.492;12.134;2023-07-29T08:33:24;2.73;;;2.33;;
20159;SDS011;50187;50.492;12.134;2023-07-29T08:35:52;2.30;;;2.20;;
20159;SDS011;50187;50.492;12.134;2023-07-29T08:38:19;2.00;;;1.90;;
20159;SDS011;50187;50.492;12.134;2023-07-29T08:43:38;2.40;;;2.30;;
20159;SDS011;50187;50.492;12.134;2023-07-29T08:46:07;2.40;;;2.20;;
20159;SDS011;50187;50.492;12.134;2023-07-29T08:48:39;2.20;;;2.10;;
20159;SDS011;50187;50.492;12.134;2023-07-29T08:51:10;2.00;;;1.90;;
20159;SDS011;50187;50.492;12.134;2023-07-29T08:53:38;2.10;;;2.00;;
20159;SDS011;50187;50.492;12.134;2023-07-29T08:56:06;2.03;;;1.93;;
20159;SDS011;50187;50.492;12.134;2023-07-29T08:58:33;3.43;;;2.30;;
20159;SDS011;50187;50.492;12.134;2023-07-29T09:01:01;2.43;;;2.30;;
20159;SDS011;50187;50.492;12.134;2023-07-29T09:03:28;1.97;;;1.87;;
20159;SDS011;50187;50.492;12.134;2023-07-29T09:05:55;1.77;;;1.67;;
20159;SDS011;50187;50.492;12.134;2023-07-29T09:08:24;2.00;;;1.90;;
20159;SDS011;50187;50.492;12.134;2023-07-29T09:10:53;1.80;;;1.70;;
20159;SDS011;50187;50.492;12.134;2023-07-29T09:13:20;1.70;;;1.60;;
20159;SDS011;50187;50.492;12.134;2023-07-29T09:15:47;2.40;;;1.83;;
20159;SDS011;50187;50.492;12.134;2023-07-29T09:18:15;1.80;;;1.70;;
20159;SDS011;50187;50.492;12.134;2023-07-29T09:20:43;2.13;;;2.03;;
20159;SDS011;50187;50.492;12.134;2023-07-29T09:23:10;1.90;;;1.80;;
20159;SDS011;50187;50.492;12.134;2023-07-29T09:25:37;2.33;;;2.23;;
20159;SDS011;50187;50.492;12.134;2023-07-29T09:28:12;2.17;;;2.07;;
20159;SDS011;50187;50.492;12.134;2023-07-29T09:30:40;1.70;;;1.70;;
20159;SDS011;50187;50.492;12.134;2023-07-29T09:33:09;1.90;;;1.80;;
20159;SDS011;50187;50.492;12.134;2023-07-29T09:35:36;1.70;;;1.60;;
20159;SDS011;50187;50.492;12.134;2023-07-29T09:38:04;1.70;;;1.60;;
20159;SDS011;50187;50.492;12.134;2023-07-29T09:40:38;1.40;;;1.40;;
20159;SDS011;50187;50.492;12.134;2023-07-29T09:43:08;1.60;;;1.50;;
20159;SDS011;50187;50.492;12.134;2023-07-29T09:45:36;1.80;;;1.70;;
20159;SDS011;50187;50.492;12.134;2023-07-29T09:48:04;1.83;;;1.73;;
20159;SDS011;50187;50.492;12.134;2023-07-29T09:50:35;2.20;;;2.10;;
20159;SDS011;50187;50.492;12.134;2023-07-29T09:53:02;1.57;;;1.47;;
20159;SDS011;50187;50.492;12.134;2023-07-29T09:55:32;1.80;;;1.70;;
20159;SDS011;50187;50.492;12.134;2023-07-29T09:58:00;1.73;;;1.63;;
20159;SDS011;50187;50.492;12.134;2023-07-29T10:00:30;1.53;;;1.40;;
20159;SDS011;50187;50.492;12.134;2023-07-29T10:02:58;1.63;;;1.53;;
20159;SDS011;50187;50.492;12.134;2023-07-29T10:05:25;1.83;;;1.73;;
20159;SDS011;50187;50.492;12.134;2023-07-29T10:07:54;1.60;;;1.40;;
20159;SDS011;50187;50.492;12.134;2023-07-29T10:10:21;1.97;;;1.87;;
20159;SDS011;50187;50.492;12.134;2023-07-29T10:12:49;1.80;;;1.70;;
20159;SDS011;50187;50.492;12.134;2023-07-29T10:15:16;1.60;;;1.50;;
20159;SDS011;50187;50.492;12.134;2023-07-29T10:17:43;1.77;;;1.67;;
20159;SDS011;50187;50.492;12.134;2023-07-29T10:20:15;1.77;;;1.67;;
20159;SDS011;50187;50.492;12.134;2023-07-29T10:22:43;1.73;;;1.63;;
20159;SDS011;50187;50.492;12.134;2023-07-29T10:25:16;1.80;;;1.70;;
20159;SDS011;50187;50.492;12.134;2023-07-29T10:27:47;2.30;;;1.80;;
20159;SDS011;50187;50.492;12.134;2023-07-29T10:30:14;1.90;;;1.80;;
20159;SDS011;50187;50.492;12.134;2023-07-29T10:32:42;1.43;;;1.40;;
20159;SDS011;50187;50.492;12.134;2023-07-29T10:35:14;4.40;;;1.53;;
20159;SDS011;50187;50.492;12.134;2023-07-29T10:37:42;2.93;;;1.77;;
20159;SDS011;50187;50.492;12.134;2023-07-29T10:40:09;1.80;;;1.70;;
20159;SDS011;50187;50.492;12.134;2023-07-29T10:42:37;1.40;;;1.40;;
20159;SDS011;50187;50.492;12.134;2023-07-29T10:45:17;1.80;;;1.70;;
20159;SDS011;50187;50.492;12.134;2023-07-29T10:47:46;2.53;;;1.70;;
20159;SDS011;50187;50.492;12.134;2023-07-29T10:50:21;1.80;;;1.70;;
20159;SDS011;50187;50.492;12.134;2023-07-29T10:52:49;1.50;;;1.50;;
20159;SDS011;50187;50.492;12.134;2023-07-29T10:55:23;1.80;;;1.70;;
20159;SDS011;50187;50.492;12.134;2023-07-29T10:58:05;1.50;;;1.50;;
20159;SDS011;50187;50.492;12.134;2023-07-29T11:00:34;1.47;;;1.40;;
20159;SDS011;50187;50.492;12.134;2023-07-29T11:03:02;1.40;;;1.40;;
20159;SDS011;50187;50.492;12.134;2023-07-29T11:08:19;1.60;;;1.50;;
20159;SDS011;50187;50.492;12.134;2023-07-29T11:13:32;1.60;;;1.50;;
20159;SDS011;50187;50.492;12.134;2023-07-29T11:16:01;1.60;;;1.50;;
20159;SDS011;50187;50.492;12.134;2023-07-29T11:18:32;1.67;;;1.57;;
20159;SDS011;50187;50.492;12.134;2023-07-29T11:21:00;1.50;;;1.40;;
20159;SDS011;50187;50.492;12.134;2023-07-29T11:23:28;1.60;;;1.50;;
20159;SDS011;50187;50.492;12.134;2023-07-29T11:25:56;1.60;;;1.50;;
20159;SDS011;50187;50.492;12.134;2023-07-29T11:28:25;1.57;;;1.47;;
20159;SDS011;50187;50.492;12.134;2023-07-29T11:30:53;1.60;;;1.40;;
20159;SDS011;50187;50.492;12.134;2023-07-29T11:33:21;3.23;;;1.50;;
20159;SDS011;50187;50.492;12.134;2023-07-29T11:35:50;1.37;;;1.37;;
20159;SDS011;50187;50.492;12.134;2023-07-29T11:38:17;1.40;;;1.30;;
20159;SDS011;50187;50.492;12.134;2023-07-29T11:40:55;1.80;;;1.70;;
20159;SDS011;50187;50.492;12.134;2023-07-29T11:43:27;1.63;;;1.53;;
20159;SDS011;50187;50.492;12.134;2023-07-29T11:45:53;3.53;;;1.50;;
20159;SDS011;50187;50.492;12.134;2023-07-29T11:48:27;1.57;;;1.47;;
20159;SDS011;50187;50.492;12.134;2023-07-29T11:50:54;1.60;;;1.50;;
20159;SDS011;50187;50.492;12.134;2023-07-29T11:53:21;1.60;;;1.50;;
20159;SDS011;50187;50.492;12.134;2023-07-29T11:55:51;1.27;;;1.23;;
20159;SDS011;50187;50.492;12.134;2023-07-29T11:58:20;1.50;;;1.40;;
20159;SDS011;50187;50.492;12.134;2023-07-29T12:00:47;1.47;;;1.37;;
20159;SDS011;50187;50.492;12.134;2023-07-29T12:03:14;1.60;;;1.50;;
20159;SDS011;50187;50.492;12.134;2023-07-29T12:05:44;1.57;;;1.47;;
20159;SDS011;50187;50.492;12.134;2023-07-29T12:08:11;1.63;;;1.40;;
20159;SDS011;50187;50.492;12.134;2023-07-29T12:10:38;1.67;;;1.50;;
20159;SDS011;50187;50.492;12.134;2023-07-29T12:13:05;1.67;;;1.57;;
20159;SDS011;50187;50.492;12.134;2023-07-29T12:15:34;1.30;;;1.20;;
20159;SDS011;50187;50.492;12.134;2023-07-29T12:18:01;1.53;;;1.43;;
20159;SDS011;50187;50.492;12.134;2023-07-29T12:20:28;1.50;;;1.40;;
20159;SDS011;50187;50.492;12.134;2023-07-29T12:22:56;1.53;;;1.43;;
20159;SDS011;50187;50.492;12.134;2023-07-29T12:25:25;1.53;;;1.43;;
20159;SDS011;50187;50.492;12.134;2023-07-29T12:27:52;1.63;;;1.53;;
20159;SDS011;50187;50.492;12.134;2023-07-29T12:30:20;1.47;;;1.30;;
20159;SDS011;50187;50.492;12.134;2023-07-29T12:32:48;1.80;;;1.70;;
20159;SDS011;50187;50.492;12.134;2023-07-29T12:35:15;1.40;;;1.30;;
20159;SDS011;50187;50.492;12.134;2023-07-29T12:37:41;1.57;;;1.17;;
20159;SDS011;50187;50.492;12.134;2023-07-29T12:40:22;1.53;;;1.40;;
20159;SDS011;50187;50.492;12.134;2023-07-29T12:42:51;1.67;;;1.50;;
20159;SDS011;50187;50.492;12.134;2023-07-29T12:45:19;1.57;;;1.47;;
20159;SDS011;50187;50.492;12.134;2023-07-29T12:47:47;1.47;;;1.30;;
20159;SDS011;50187;50.492;12.134;2023-07-29T12:50:14;1.30;;;1.20;;
20159;SDS011;50187;50.492;12.134;2023-07-29T12:52:40;0.97;;;0.97;;
20159;SDS011;50187;50.492;12.134;2023-07-29T12:55:07;1.20;;;1.20;;
20159;SDS011;50187;50.492;12.134;2023-07-29T12:57:41;1.50;;;1.40;;
20159;SDS011;50187;50.492;12.134;2023-07-29T13:00:09;1.30;;;1.20;;
20159;SDS011;50187;50.492;12.134;2023-07-29T13:02:36;1.40;;;1.30;;
20159;SDS011;50187;50.492;12.134;2023-07-29T13:05:03;1.33;;;1.23;;
20159;SDS011;50187;50.492;12.134;2023-07-29T13:07:30;2.37;;;1.40;;
20159;SDS011;50187;50.492;12.134;2023-07-29T13:09:57;2.13;;;1.20;;
20159;SDS011;50187;50.492;12.134;2023-07-29T13:12:23;1.40;;;1.30;;
20159;SDS011;50187;50.492;12.134;2023-07-29T13:14:50;1.57;;;1.47;;
20159;SDS011;50187;50.492;12.134;2023-07-29T13:17:16;1.00;;;1.00;;
20159;SDS011;50187;50.492;12.134;2023-07-29T13:19:43;1.53;;;1.43;;
20159;SDS011;50187;50.492;12.134;2023-07-29T13:22:10;1.40;;;1.30;;
20159;SDS011;50187;50.492;12.134;2023-07-29T13:24:36;1.37;;;1.27;;
20159;SDS011;50187;50.492;12.134;2023-07-29T13:27:03;1.40;;;1.30;;
20159;SDS011;50187;50.492;12.134;2023-07-29T13:29:30;1.60;;;1.50;;
20159;SDS011;50187;50.492;12.134;2023-07-29T13:31:57;1.77;;;1.40;;
20159;SDS011;50187;50.492;12.134;2023-07-29T13:34:24;1.20;;;1.20;;
20159;SDS011;50187;50.492;12.134;2023-07-29T13:36:50;1.20;;;1.20;;
20159;SDS011;50187;50.492;12.134;2023-07-29T13:39:17;1.40;;;1.30;;
20159;SDS011;50187;50.492;12.134;2023-07-29T13:41:45;1.10;;;1.10;;
20159;SDS011;50187;50.492;12.134;2023-07-29T13:44:12;1.33;;;1.23;;
20159;SDS011;50187;50.492;12.134;2023-07-29T13:46:39;1.50;;;1.40;;
20159;SDS011;50187;50.492;12.134;2023-07-29T13:49:06;1.40;;;1.30;;
20159;SDS011;50187;50.492;12.134;2023-07-29T13:51:32;1.20;;;1.20;;
20159;SDS011;50187;50.492;12.134;2023-07-29T13:53:59;1.40;;;1.30;;
20159;SDS011;50187;50.492;12.134;2023-07-29T13:56:26;1.30;;;1.20;;
20159;SDS011;50187;50.492;12.134;2023-07-29T13:58:52;1.13;;;1.13;;
20159;SDS011;50187;50.492;12.134;2023-07-29T14:01:19;1.17;;;1.17;;
20159;SDS011;50187;50.492;12.134;2023-07-29T14:03:46;1.40;;;1.23;;
20159;SDS011;50187;50.492;12.134;2023-07-29T14:06:15;1.20;;;1.20;;
20159;SDS011;50187;50.492;12.134;2023-07-29T14:09:10;2.00;;;1.20;;
20159;SDS011;50187;50.492;12.134;2023-07-29T14:11:37;1.00;;;1.00;;
20159;SDS011;50187;50.492;12.134;2023-07-29T14:14:04;1.37;;;1.27;;
20159;SDS011;50187;50.492;12.134;2023-07-29T14:16:31;1.63;;;1.53;;
20159;SDS011;50187;50.492;12.134;2023-07-29T14:18:58;1.10;;;1.10;;
20159;SDS011;50187;50.492;12.134;2023-07-29T14:21:24;2.00;;;1.20;;
20159;SDS011;50187;50.492;12.134;2023-07-29T14:23:51;1.20;;;1.20;;
20159;SDS011;50187;50.492;12.134;2023-07-29T14:26:18;1.30;;;1.30;;
20159;SDS011;50187;50.492;12.134;2023-07-29T14:28:44;1.00;;;1.00;;
20159;SDS011;50187;50.492;12.134;2023-07-29T14:31:13;1.20;;;1.20;;
20159;SDS011;50187;50.492;12.134;2023-07-29T14:33:40;1.67;;;1.57;;
20159;SDS011;50187;50.492;12.134;2023-07-29T14:36:06;1.00;;;1.00;;
20159;SDS011;50187;50.492;12.134;2023-07-29T14:38:34;1.90;;;1.23;;
20159;SDS011;50187;50.492;12.134;2023-07-29T14:41:03;1.20;;;1.20;;
20159;SDS011;50187;50.492;12.134;2023-07-29T14:43:30;1.77;;;1.67;;
20159;SDS011;50187;50.492;12.134;2023-07-29T14:45:57;1.40;;;1.20;;
20159;SDS011;50187;50.492;12.134;2023-07-29T14:48:24;0.90;;;0.90;;
20159;SDS011;50187;50.492;12.134;2023-07-29T14:50:50;1.43;;;1.33;;